createdAt,value
2018-01-23T00:01:33.908Z,11.43
2018-01-23T00:04:02.733Z,10.60
2018-01-23T00:06:31.031Z,9.20
2018-01-23T00:08:59.384Z,10.50
2018-01-23T00:11:27.726Z,9.90
2018-01-23T00:13:56.056Z,11.23
2018-01-23T00:16:24.373Z,10.13
2018-01-23T00:18:52.728Z,11.67
2018-01-23T00:21:21.056Z,10.03
2018-01-23T00:23:49.411Z,10.60
2018-01-23T00:26:17.744Z,12.30
2018-01-23T00:28:46.090Z,11.80
2018-01-23T00:31:14.430Z,10.57
2018-01-23T00:33:42.794Z,10.50
2018-01-23T00:36:11.063Z,11.53
2018-01-23T00:38:39.383Z,11.00
2018-01-23T00:41:07.716Z,11.47
2018-01-23T00:43:36.083Z,14.57
2018-01-23T00:46:04.448Z,11.57
2018-01-23T00:48:32.751Z,12.30
2018-01-23T00:51:01.105Z,11.93
2018-01-23T00:53:29.415Z,12.30
2018-01-23T00:55:57.757Z,13.23
2018-01-23T00:58:26.137Z,15.20
2018-01-23T01:00:54.452Z,16.43
2018-01-23T01:03:22.782Z,14.90
2018-01-23T01:05:51.105Z,13.97
2018-01-23T01:08:19.441Z,15.10
2018-01-23T01:10:47.771Z,17.30
2018-01-23T01:13:16.096Z,16.73
2018-01-23T01:15:44.425Z,17.53
2018-01-23T01:18:12.745Z,18.43
2018-01-23T01:20:41.886Z,16.37
2018-01-23T01:23:10.212Z,19.10
2018-01-23T01:25:38.531Z,15.90
2018-01-23T01:28:06.855Z,17.27
2018-01-23T01:30:35.180Z,16.00
2018-01-23T01:33:03.528Z,16.20
2018-01-23T01:35:31.852Z,15.63
2018-01-23T01:38:00.182Z,15.57
2018-01-23T01:40:28.525Z,14.63
2018-01-23T01:42:56.854Z,15.13
2018-01-23T01:45:26.139Z,17.20
2018-01-23T01:47:54.439Z,15.00
2018-01-23T01:50:22.773Z,15.23
2018-01-23T01:52:51.142Z,15.23
2018-01-23T01:55:19.483Z,15.20
2018-01-23T01:57:47.829Z,16.50
2018-01-23T02:00:16.160Z,12.97
2018-01-23T02:02:44.621Z,14.17
2018-01-23T02:05:12.930Z,13.40
2018-01-23T02:07:41.298Z,12.80
2018-01-23T02:10:09.609Z,13.90
2018-01-23T02:12:37.944Z,13.90
2018-01-23T02:15:06.268Z,12.90
2018-01-23T02:17:34.626Z,11.23
2018-01-23T02:20:02.962Z,13.07
2018-01-23T02:22:31.296Z,13.07
2018-01-23T02:24:59.641Z,12.87
2018-01-23T02:27:27.956Z,14.03
2018-01-23T02:29:56.338Z,13.70
2018-01-23T02:32:25.380Z,13.43
2018-01-23T02:34:54.111Z,13.87
2018-01-23T02:37:22.450Z,13.47
2018-01-23T02:39:50.764Z,15.30
2018-01-23T02:42:19.099Z,14.10
2018-01-23T02:44:47.451Z,17.43
2018-01-23T02:47:15.755Z,15.17
2018-01-23T02:49:44.100Z,17.87
2018-01-23T02:52:12.424Z,12.07
2018-01-23T02:54:40.854Z,14.63
2018-01-23T02:57:09.142Z,14.90
2018-01-23T02:59:37.456Z,13.67
2018-01-23T03:02:05.789Z,15.70
2018-01-23T03:04:34.090Z,15.57
2018-01-23T03:07:02.422Z,14.23
2018-01-23T03:09:30.729Z,15.03
2018-01-23T03:11:59.075Z,15.73
2018-01-23T03:14:27.386Z,17.00
2018-01-23T03:16:55.714Z,16.40
2018-01-23T03:19:24.034Z,15.63
2018-01-23T03:21:52.360Z,13.80
2018-01-23T03:24:20.716Z,13.03
2018-01-23T03:26:49.090Z,13.67
2018-01-23T03:29:17.510Z,15.70
2018-01-23T03:31:45.831Z,14.20
2018-01-23T03:34:14.982Z,15.53
2018-01-23T03:36:43.304Z,15.07
2018-01-23T03:39:11.617Z,11.67
2018-01-23T03:41:41.167Z,13.03
2018-01-23T03:44:09.524Z,12.87
2018-01-23T03:46:37.898Z,11.67
2018-01-23T03:49:06.215Z,12.80
2018-01-23T03:51:34.527Z,12.47
2018-01-23T03:54:02.858Z,13.60
2018-01-23T03:56:31.184Z,10.27
2018-01-23T03:58:59.485Z,9.30
2018-01-23T04:01:27.807Z,10.50
2018-01-23T04:03:56.859Z,8.97
2018-01-23T04:06:25.181Z,8.50
2018-01-23T04:08:53.490Z,9.37
2018-01-23T04:11:21.838Z,9.60
2018-01-23T04:13:50.144Z,8.33
2018-01-23T04:16:18.476Z,8.43
2018-01-23T04:18:46.792Z,8.10
2018-01-23T04:21:16.142Z,7.97
2018-01-23T04:23:44.452Z,8.40
2018-01-23T04:26:12.779Z,7.57
2018-01-23T04:28:41.083Z,7.23
2018-01-23T04:31:09.408Z,7.93
2018-01-23T04:33:37.758Z,7.03
2018-01-23T04:36:06.061Z,7.80
2018-01-23T04:38:34.400Z,8.30
2018-01-23T04:41:02.740Z,7.50
2018-01-23T04:43:31.048Z,8.50
2018-01-23T04:45:59.370Z,8.10
2018-01-23T04:48:27.679Z,8.07
2018-01-23T04:50:56.728Z,8.70
2018-01-23T04:53:25.075Z,8.90
2018-01-23T04:55:53.387Z,8.10
2018-01-23T04:58:21.689Z,8.70
2018-01-23T05:00:49.995Z,6.00
2018-01-23T05:03:18.355Z,8.80
2018-01-23T05:05:46.728Z,7.33
2018-01-23T05:08:15.033Z,7.63
2018-01-23T05:10:43.328Z,8.50
2018-01-23T05:13:11.688Z,7.70
2018-01-23T05:15:40.001Z,6.93
2018-01-23T05:18:08.307Z,7.60
2018-01-23T05:20:36.750Z,7.10
2018-01-23T05:23:05.057Z,7.60
2018-01-23T05:25:33.367Z,6.50
2018-01-23T05:28:01.696Z,7.60
2018-01-23T05:30:30.020Z,7.80
2018-01-23T05:32:58.319Z,6.40
2018-01-23T05:35:26.652Z,6.50
2018-01-23T05:37:55.373Z,6.40
2018-01-23T05:40:23.679Z,8.57
2018-01-23T05:42:51.987Z,8.03
2018-01-23T05:45:20.318Z,8.70
2018-01-23T05:47:48.643Z,8.77
2018-01-23T05:50:16.967Z,8.30
2018-01-23T05:52:45.287Z,8.30
2018-01-23T05:55:13.584Z,9.47
2018-01-23T05:57:42.616Z,8.77
2018-01-23T06:00:10.943Z,8.03
2018-01-23T06:02:39.255Z,8.37
2018-01-23T06:05:07.800Z,7.50
2018-01-23T06:07:36.117Z,8.17
2018-01-23T06:10:04.455Z,8.80
2018-01-23T06:12:33.580Z,8.80
2018-01-23T06:15:01.912Z,8.67
2018-01-23T06:17:30.220Z,9.67
2018-01-23T06:19:58.537Z,9.27
2018-01-23T06:22:27.615Z,9.03
2018-01-23T06:24:56.080Z,10.10
2018-01-23T06:27:25.347Z,9.90
2018-01-23T06:32:28.350Z,9.60
2018-01-23T06:34:56.655Z,11.40
2018-01-23T06:37:25.279Z,10.83
2018-01-23T06:39:54.515Z,15.17
2018-01-23T06:42:23.315Z,11.73
2018-01-23T06:44:51.614Z,12.63
2018-01-23T06:47:19.950Z,11.33
2018-01-23T06:49:48.264Z,10.47
2018-01-23T06:52:16.638Z,7.90
2018-01-23T06:54:44.984Z,11.30
2018-01-23T06:57:13.448Z,10.20
2018-01-23T06:59:41.854Z,9.90
2018-01-23T07:02:10.240Z,10.27
2018-01-23T07:04:39.692Z,10.10
2018-01-23T07:07:08.056Z,10.73
2018-01-23T07:09:36.421Z,10.47
2018-01-23T07:12:04.766Z,12.17
2018-01-23T07:14:33.879Z,12.83
2018-01-23T07:17:02.213Z,12.07
2018-01-23T07:19:31.341Z,12.37
2018-01-23T07:21:59.734Z,11.67
2018-01-23T07:24:28.057Z,13.50
2018-01-23T07:26:56.444Z,13.77
2018-01-23T07:29:25.598Z,12.87
2018-01-23T07:31:54.117Z,12.50
2018-01-23T07:34:22.428Z,12.20
2018-01-23T07:36:50.812Z,13.90
2018-01-23T07:39:19.126Z,12.60
2018-01-23T07:41:47.446Z,13.40
2018-01-23T07:44:16.732Z,12.27
2018-01-23T07:46:45.527Z,13.13
2018-01-23T07:49:13.863Z,11.97
2018-01-23T07:51:42.209Z,12.00
2018-01-23T07:54:10.564Z,11.27
2018-01-23T07:56:40.044Z,11.63
2018-01-23T07:59:08.372Z,13.20
2018-01-23T08:01:36.680Z,14.00
2018-01-23T08:04:05.136Z,10.67
2018-01-23T08:06:33.481Z,10.07
2018-01-23T08:09:01.818Z,10.43
2018-01-23T08:11:30.379Z,10.43
2018-01-23T08:13:59.675Z,10.90
2018-01-23T08:16:27.989Z,10.90
2018-01-23T08:18:56.327Z,9.40
2018-01-23T08:21:27.624Z,9.93
2018-01-23T08:23:58.029Z,9.63
2018-01-23T08:26:26.346Z,8.87
2018-01-23T08:28:54.698Z,9.70
2018-01-23T08:31:23.115Z,9.43
2018-01-23T08:33:55.532Z,8.73
2018-01-23T08:36:23.901Z,8.63
2018-01-23T08:38:52.213Z,9.37
2018-01-23T08:41:21.025Z,8.60
2018-01-23T08:43:52.679Z,7.57
2018-01-23T08:46:21.075Z,8.80
2018-01-23T08:48:49.382Z,9.03
2018-01-23T08:51:18.084Z,8.40
2018-01-23T08:53:46.409Z,8.07
2018-01-23T08:56:14.744Z,8.97
2018-01-23T08:58:44.744Z,9.20
2018-01-23T09:01:13.064Z,7.37
2018-01-23T09:03:41.410Z,7.50
2018-01-23T09:06:09.724Z,7.97
2018-01-23T09:08:38.287Z,9.30
2018-01-23T09:11:09.203Z,7.87
2018-01-23T09:13:37.536Z,8.30
2018-01-23T09:16:05.840Z,8.50
2018-01-23T09:18:34.173Z,7.10
2018-01-23T09:21:02.551Z,7.63
2018-01-23T09:23:30.938Z,7.70
2018-01-23T09:25:59.249Z,6.63
2018-01-23T09:28:27.573Z,7.70
2018-01-23T09:30:55.891Z,5.53
2018-01-23T09:33:24.231Z,8.27
2018-01-23T09:35:52.568Z,7.97
2018-01-23T09:38:20.892Z,6.20
2018-01-23T09:40:49.211Z,7.77
2018-01-23T09:43:18.723Z,6.53
2018-01-23T09:45:47.069Z,5.60
2018-01-23T09:48:16.088Z,6.63
2018-01-23T09:50:44.413Z,6.47
2018-01-23T09:53:12.769Z,6.10
2018-01-23T09:55:41.148Z,5.70
2018-01-23T09:58:09.679Z,5.97
2018-01-23T10:00:38.058Z,6.20
2018-01-23T10:03:06.419Z,6.00
2018-01-23T10:05:35.844Z,6.10
2018-01-23T10:08:04.200Z,6.10
2018-01-23T10:10:33.523Z,4.83
2018-01-23T10:13:07.050Z,4.67
2018-01-23T10:15:35.547Z,4.50
2018-01-23T10:18:03.875Z,5.77
2018-01-23T10:20:32.199Z,5.27
2018-01-23T10:23:00.581Z,6.10
2018-01-23T10:25:28.913Z,4.97
2018-01-23T10:27:57.250Z,5.57
2018-01-23T10:30:25.562Z,5.33
2018-01-23T10:32:53.898Z,5.23
2018-01-23T10:35:22.264Z,6.23
2018-01-23T10:37:50.599Z,5.57
2018-01-23T10:40:18.912Z,5.70
2018-01-23T10:42:47.253Z,4.97
2018-01-23T10:45:15.576Z,7.10
2018-01-23T10:47:43.928Z,4.70
2018-01-23T10:50:12.247Z,4.53
2018-01-23T10:52:40.567Z,4.97
2018-01-23T10:55:08.908Z,4.23
2018-01-23T10:57:37.218Z,5.10
2018-01-23T11:00:05.547Z,5.30
2018-01-23T11:02:33.859Z,4.33
2018-01-23T11:05:02.181Z,5.07
2018-01-23T11:07:30.487Z,5.03
2018-01-23T11:09:58.799Z,4.33
2018-01-23T11:12:27.120Z,5.47
2018-01-23T11:14:55.442Z,5.00
2018-01-23T11:17:23.750Z,4.30
2018-01-23T11:19:52.067Z,3.67
2018-01-23T11:22:21.392Z,4.70
2018-01-23T11:24:50.229Z,4.97
2018-01-23T11:27:18.577Z,4.67
2018-01-23T11:29:47.672Z,4.90
2018-01-23T11:32:16.035Z,4.37
2018-01-23T11:34:44.303Z,5.30
2018-01-23T11:37:15.426Z,4.00
2018-01-23T11:39:44.670Z,4.60
2018-01-23T11:42:13.042Z,7.00
2018-01-23T11:44:41.346Z,5.13
2018-01-23T11:47:09.680Z,5.53
2018-01-23T11:49:37.982Z,4.40
2018-01-23T11:52:06.313Z,4.87
2018-01-23T11:54:34.621Z,4.50
2018-01-23T11:57:02.958Z,4.60
2018-01-23T11:59:31.270Z,4.37
2018-01-23T12:01:59.589Z,5.30
2018-01-23T12:04:27.902Z,4.10
2018-01-23T12:06:56.212Z,4.23
2018-01-23T12:09:24.547Z,5.10
2018-01-23T12:11:52.862Z,6.50
2018-01-23T12:14:21.862Z,3.73
2018-01-23T12:16:51.013Z,4.53
2018-01-23T12:19:19.431Z,3.77
2018-01-23T12:21:47.719Z,4.23
2018-01-23T12:24:16.046Z,6.37
2018-01-23T12:26:44.639Z,4.87
2018-01-23T12:29:12.936Z,5.27
2018-01-23T12:31:41.250Z,4.37
2018-01-23T12:34:09.563Z,4.70
2018-01-23T12:36:37.889Z,4.87
2018-01-23T12:39:06.207Z,4.30
2018-01-23T12:41:34.536Z,4.70
2018-01-23T12:44:02.862Z,5.20
2018-01-23T12:46:31.254Z,6.30
2018-01-23T12:48:59.560Z,4.70
2018-01-23T12:51:28.758Z,5.07
2018-01-23T12:53:57.089Z,4.77
2018-01-23T12:56:25.403Z,5.40
2018-01-23T12:58:53.711Z,4.23
2018-01-23T13:01:22.054Z,4.37
2018-01-23T13:03:50.357Z,3.67
2018-01-23T13:06:18.681Z,4.37
2018-01-23T13:08:47.032Z,7.20
2018-01-23T13:11:15.365Z,4.70
2018-01-23T13:13:43.684Z,3.93
2018-01-23T13:16:12.010Z,4.33
2018-01-23T13:18:40.676Z,4.90
2018-01-23T13:21:08.991Z,3.77
2018-01-23T13:23:37.345Z,4.40
2018-01-23T13:26:05.659Z,4.50
2018-01-23T13:28:34.107Z,5.80
2018-01-23T13:31:02.405Z,4.90
2018-01-23T13:33:30.727Z,4.57
2018-01-23T13:35:59.050Z,5.20
2018-01-23T13:38:27.388Z,5.30
2018-01-23T13:40:55.723Z,4.07
2018-01-23T13:43:24.034Z,4.97
2018-01-23T13:45:53.231Z,6.00
2018-01-23T13:48:21.591Z,4.60
2018-01-23T13:50:49.947Z,4.80
2018-01-23T13:53:18.295Z,4.17
2018-01-23T13:55:47.588Z,4.90
2018-01-23T13:58:15.944Z,5.20
2018-01-23T14:00:44.305Z,4.10
2018-01-23T14:03:12.650Z,4.60
2018-01-23T14:05:40.964Z,4.37
2018-01-23T14:08:09.314Z,3.70
2018-01-23T14:10:37.619Z,5.10
2018-01-23T14:13:06.457Z,4.90
2018-01-23T14:15:34.821Z,3.97
2018-01-23T14:18:07.036Z,4.87
2018-01-23T14:20:35.389Z,3.00
2018-01-23T14:23:06.883Z,5.30
2018-01-23T14:25:35.198Z,4.03
2018-01-23T14:28:03.526Z,4.83
2018-01-23T14:30:31.837Z,4.43
2018-01-23T14:33:00.161Z,4.70
2018-01-23T14:35:28.486Z,5.17
2018-01-23T14:37:58.753Z,4.37
2018-01-23T14:40:27.055Z,4.67
2018-01-23T14:42:55.378Z,3.60
2018-01-23T14:45:23.878Z,3.60
2018-01-23T14:47:52.285Z,3.53
2018-01-23T14:50:20.688Z,4.10
2018-01-23T14:52:49.062Z,4.73
2018-01-23T14:55:17.407Z,3.43
2018-01-23T14:57:45.727Z,4.43
2018-01-23T15:00:14.053Z,3.80
2018-01-23T15:02:42.421Z,5.23
2018-01-23T15:05:10.799Z,4.27
2018-01-23T15:07:39.165Z,8.10
2018-01-23T15:10:07.528Z,4.47
2018-01-23T15:12:35.861Z,4.83
2018-01-23T15:15:04.178Z,3.50
2018-01-23T15:17:32.486Z,4.63
2018-01-23T15:20:00.808Z,4.37
2018-01-23T15:22:29.131Z,4.67
2018-01-23T15:24:57.472Z,4.30
2018-01-23T15:27:25.788Z,4.00
2018-01-23T15:29:54.121Z,4.33
2018-01-23T15:32:22.432Z,4.73
2018-01-23T15:34:51.748Z,3.50
2018-01-23T15:37:20.085Z,4.13
2018-01-23T15:39:48.436Z,5.87
2018-01-23T15:42:16.781Z,4.90
2018-01-23T15:44:45.212Z,5.37
2018-01-23T15:47:14.943Z,5.00
2018-01-23T15:49:43.532Z,4.50
2018-01-23T15:52:11.999Z,5.30
2018-01-23T15:54:40.519Z,5.80
2018-01-23T15:57:08.911Z,5.10
2018-01-23T15:59:37.307Z,4.67
2018-01-23T16:02:05.704Z,4.40
2018-01-23T16:04:34.176Z,4.00
2018-01-23T16:07:02.556Z,5.37
2018-01-23T16:09:31.071Z,4.93
2018-01-23T16:11:59.390Z,5.53
2018-01-23T16:14:27.704Z,5.23
2018-01-23T16:16:56.108Z,5.43
2018-01-23T16:19:24.375Z,4.83
2018-01-23T16:21:52.720Z,5.73
2018-01-23T16:24:21.225Z,5.70
2018-01-23T16:26:49.693Z,4.47
2018-01-23T16:29:18.046Z,4.90
2018-01-23T16:31:47.034Z,4.90
2018-01-23T16:34:15.361Z,4.47
2018-01-23T16:36:43.710Z,5.80
2018-01-23T16:39:13.270Z,5.07
2018-01-23T16:41:43.523Z,4.97
2018-01-23T16:44:11.933Z,6.40
2018-01-23T16:46:40.273Z,5.77
2018-01-23T16:49:10.254Z,6.70
2018-01-23T16:51:38.724Z,5.67
2018-01-23T16:54:07.072Z,6.20
2018-01-23T16:56:35.376Z,5.23
2018-01-23T16:59:03.730Z,6.30
2018-01-23T17:01:32.291Z,5.60
2018-01-23T17:04:02.654Z,5.57
2018-01-23T17:06:31.968Z,6.53
2018-01-23T17:09:00.347Z,5.70
2018-01-23T17:11:28.693Z,5.60
2018-01-23T17:13:57.000Z,5.57
2018-01-23T17:16:25.344Z,5.60
2018-01-23T17:18:53.656Z,5.13
2018-01-23T17:21:21.969Z,4.17
2018-01-23T17:23:50.410Z,5.23
2018-01-23T17:26:24.076Z,5.33
2018-01-23T17:28:52.389Z,5.50
2018-01-23T17:31:20.714Z,4.73
2018-01-23T17:33:49.049Z,5.23
2018-01-23T17:36:17.372Z,6.57
2018-01-23T17:38:45.781Z,4.60
2018-01-23T17:41:14.121Z,5.40
2018-01-23T17:43:42.469Z,4.97
2018-01-23T17:46:10.916Z,5.80
2018-01-23T17:48:40.076Z,5.30
2018-01-23T17:51:09.753Z,6.43
2018-01-23T17:53:38.197Z,5.90
2018-01-23T17:56:06.702Z,6.03
2018-01-23T17:58:37.581Z,5.53
2018-01-23T18:01:06.034Z,7.13
2018-01-23T18:03:36.029Z,6.33
2018-01-23T18:06:04.753Z,6.97
2018-01-23T18:08:33.553Z,6.40
2018-01-23T18:11:02.006Z,6.73
2018-01-23T18:13:30.348Z,6.33
2018-01-23T18:15:58.660Z,6.00
2018-01-23T18:18:26.993Z,8.17
2018-01-23T18:20:55.306Z,6.63
2018-01-23T18:23:23.798Z,6.93
2018-01-23T18:25:52.158Z,7.90
2018-01-23T18:28:20.523Z,6.27
2018-01-23T18:30:48.853Z,7.57
2018-01-23T18:33:17.198Z,6.40
2018-01-23T18:35:45.534Z,6.30
2018-01-23T18:38:13.839Z,6.83
2018-01-23T18:40:42.318Z,7.60
2018-01-23T18:43:10.638Z,5.60
2018-01-23T18:45:38.960Z,6.10
2018-01-23T18:48:09.145Z,6.90
2018-01-23T18:50:37.463Z,5.67
2018-01-23T18:53:05.817Z,5.60
2018-01-23T18:55:34.128Z,5.20
2018-01-23T18:58:02.456Z,5.90
2018-01-23T19:00:31.437Z,5.00
2018-01-23T19:02:59.752Z,5.90
2018-01-23T19:05:28.131Z,4.93
2018-01-23T19:07:56.523Z,6.80
2018-01-23T19:10:25.560Z,6.47
2018-01-23T19:12:53.859Z,5.77
2018-01-23T19:15:22.201Z,6.47
2018-01-23T19:17:50.678Z,6.80
2018-01-23T19:20:19.006Z,6.37
2018-01-23T19:22:47.354Z,8.63
2018-01-23T19:25:15.711Z,6.73
2018-01-23T19:27:44.025Z,7.50
2018-01-23T19:30:12.355Z,6.97
2018-01-23T19:32:40.673Z,7.13
2018-01-23T19:35:09.032Z,7.53
2018-01-23T19:37:37.356Z,5.80
2018-01-23T19:40:05.669Z,6.60
2018-01-23T19:42:34.000Z,6.80
2018-01-23T19:45:02.314Z,5.50
2018-01-23T19:47:30.628Z,6.67
2018-01-23T19:49:58.981Z,6.83
2018-01-23T19:52:27.915Z,5.33
2018-01-23T19:54:56.229Z,5.40
2018-01-23T19:57:24.555Z,5.57
2018-01-23T19:59:52.881Z,4.73
2018-01-23T20:02:21.229Z,5.60
2018-01-23T20:04:49.554Z,6.23
2018-01-23T20:07:17.895Z,5.70
2018-01-23T20:09:46.240Z,7.60
2018-01-23T20:12:14.567Z,5.40
2018-01-23T20:14:43.019Z,5.40
2018-01-23T20:17:11.671Z,6.67
2018-01-23T20:19:39.964Z,5.27
2018-01-23T20:22:08.309Z,5.30
2018-01-23T20:24:36.745Z,5.80
2018-01-23T20:27:05.110Z,6.67
2018-01-23T20:29:33.432Z,6.00
2018-01-23T20:32:02.562Z,6.40
2018-01-23T20:34:30.879Z,7.17
2018-01-23T20:36:59.235Z,6.70
2018-01-23T20:39:27.545Z,6.43
2018-01-23T20:41:55.847Z,6.00
2018-01-23T20:44:24.207Z,6.20
2018-01-23T20:46:52.848Z,5.70
2018-01-23T20:49:21.250Z,5.87
2018-01-23T20:51:49.592Z,6.80
2018-01-23T20:54:17.931Z,7.70
2018-01-23T20:56:47.118Z,7.97
2018-01-23T20:59:15.488Z,7.53
2018-01-23T21:01:48.179Z,8.50
2018-01-23T21:04:17.017Z,8.33
2018-01-23T21:06:45.645Z,6.97
2018-01-23T21:09:14.716Z,8.80
2018-01-23T21:12:07.585Z,7.70
2018-01-23T21:17:28.552Z,7.70
2018-01-23T21:19:56.871Z,8.20
2018-01-23T21:22:25.181Z,9.53
2018-01-23T21:24:53.500Z,7.30
2018-01-23T21:27:21.827Z,7.63
2018-01-23T21:29:50.149Z,8.20
2018-01-23T21:32:18.464Z,8.57
2018-01-23T21:34:46.806Z,8.10
2018-01-23T21:37:15.116Z,8.60
2018-01-23T21:39:44.212Z,8.93
2018-01-23T21:42:12.577Z,6.53
2018-01-23T21:44:40.889Z,7.40
2018-01-23T21:47:09.218Z,7.90
2018-01-23T21:49:37.600Z,7.50
2018-01-23T21:52:05.901Z,8.37
2018-01-23T21:54:34.239Z,7.50
2018-01-23T21:59:53.853Z,7.20
2018-01-23T22:02:22.504Z,9.00
2018-01-23T22:04:50.871Z,6.60
2018-01-23T22:07:19.251Z,7.43
2018-01-23T22:09:47.582Z,7.40
2018-01-23T22:12:21.663Z,8.53
2018-01-23T22:14:50.757Z,8.93
2018-01-23T22:20:16.192Z,8.23
2018-01-23T22:22:45.359Z,7.77
2018-01-23T22:25:13.690Z,8.97
2018-01-23T22:27:42.011Z,7.77
2018-01-23T22:30:10.335Z,7.80
2018-01-23T22:32:38.647Z,8.80
2018-01-23T22:35:06.976Z,7.87
2018-01-23T22:37:35.313Z,8.87
2018-01-23T22:40:03.617Z,7.80
2018-01-23T22:42:31.932Z,8.00
2018-01-23T22:45:00.251Z,8.77
2018-01-23T22:47:28.572Z,9.00
2018-01-23T22:49:58.393Z,8.90
2018-01-23T22:52:27.580Z,9.37
2018-01-23T22:54:56.706Z,8.57
2018-01-23T22:57:25.030Z,9.57
2018-01-23T22:59:53.366Z,10.37
2018-01-23T23:02:21.968Z,8.13
2018-01-23T23:04:50.943Z,8.53
2018-01-23T23:07:19.430Z,9.73
2018-01-23T23:09:48.406Z,9.47
2018-01-23T23:12:17.512Z,9.70
2018-01-23T23:14:45.832Z,9.20
2018-01-23T23:17:14.143Z,7.93
2018-01-23T23:19:42.482Z,8.60
2018-01-23T23:22:10.822Z,8.73
2018-01-23T23:24:40.156Z,8.77
2018-01-23T23:27:08.492Z,7.53
2018-01-23T23:29:37.469Z,7.43
2018-01-23T23:32:05.779Z,7.27
2018-01-23T23:34:34.108Z,6.40
2018-01-23T23:37:02.411Z,6.30
2018-01-23T23:39:32.215Z,6.97
2018-01-23T23:42:00.519Z,5.17
2018-01-23T23:44:28.824Z,6.00
2018-01-23T23:46:57.944Z,6.67
2018-01-23T23:49:26.256Z,5.70
2018-01-23T23:51:55.456Z,5.93
2018-01-23T23:54:23.770Z,6.37
2018-01-23T23:56:52.077Z,7.20
2018-01-23T23:59:20.428Z,6.30
